Time;durP1;ratioP1;P1;durP2;ratioP2;P2;SDS_P1;SDS_P2;PMS_P1;PMS_P2;Temp;Humidity;BMP_temperature;BMP_pressure;BME280_temperature;BME280_humidity;BME280_pressure;Samples;Min_cycle;Max_cycle;Signal;HPM_P1;HPM_P2
2023/07/16 00:00:44;;;;;;;56.70;38.72;;;;;;;;;;5022022;28;20054;-65
2023/07/16 00:03:11;;;;;;;55.42;36.78;;;;;;;;;;5021608;28;20798;-66
2023/07/16 00:05:38;;;;;;;56.33;36.95;;;;;;;;;;5024812;28;20052;-64
2023/07/16 00:08:05;;;;;;;58.83;37.35;;;;;;;;;;5027657;28;20091;-64
2023/07/16 00:10:33;;;;;;;60.78;38.58;;;;;;;;;;5023542;28;20150;-65
2023/07/16 00:13:00;;;;;;;55.50;36.40;;;;;;;;;;5048910;28;20045;-65
2023/07/16 00:15:27;;;;;;;62.25;40.00;;;;;;;;;;5045686;28;20036;-65
2023/07/16 00:17:54;;;;;;;56.67;38.00;;;;;;;;;;5045877;28;20063;-63
2023/07/16 00:20:23;;;;;;;55.95;38.33;;;;;;;;;;5046459;28;20361;-63
2023/07/16 00:22:50;;;;;;;57.05;39.35;;;;;;;;;;5042918;28;20040;-65
2023/07/16 00:25:16;;;;;;;55.38;36.22;;;;;;;;;;5046450;28;20550;-65
2023/07/16 00:27:43;;;;;;;46.60;32.65;;;;;;;;;;5046137;28;20068;-63
2023/07/16 00:30:10;;;;;;;48.30;33.22;;;;;;;;;;5043614;28;20046;-65
2023/07/16 00:32:37;;;;;;;50.88;33.22;;;;;;;;;;5043477;28;20060;-66
2023/07/16 00:35:03;;;;;;;49.35;33.15;;;;;;;;;;5021029;28;20054;-66
2023/07/16 00:37:30;;;;;;;49.75;33.53;;;;;;;;;;5043717;28;20066;-65
2023/07/16 00:39:57;;;;;;;46.55;31.58;;;;;;;;;;5041556;28;20434;-65
2023/07/16 00:42:23;;;;;;;54.47;33.55;;;;;;;;;;5042283;28;20063;-64
2023/07/16 00:44:50;;;;;;;47.97;32.25;;;;;;;;;;5041721;28;20048;-64
2023/07/16 00:47:17;;;;;;;49.63;33.08;;;;;;;;;;5042833;28;20025;-67
2023/07/16 00:49:44;;;;;;;50.67;32.95;;;;;;;;;;5042844;28;20055;-69
2023/07/16 00:52:14;;;;;;;49.30;33.33;;;;;;;;;;5023828;28;20534;-68
2023/07/16 00:54:41;;;;;;;52.22;33.17;;;;;;;;;;5032650;28;20097;-67
2023/07/16 00:57:08;;;;;;;51.38;34.20;;;;;;;;;;5044366;28;20226;-68
2023/07/16 00:59:34;;;;;;;51.97;34.05;;;;;;;;;;5039856;28;20506;-68
2023/07/16 01:02:01;;;;;;;50.42;33.15;;;;;;;;;;5042913;28;20238;-67
2023/07/16 01:04:28;;;;;;;49.40;33.97;;;;;;;;;;5043342;28;20036;-67
2023/07/16 01:06:56;;;;;;;49.65;33.10;;;;;;;;;;5046108;28;20071;-67
2023/07/16 01:09:23;;;;;;;52.65;34.92;;;;;;;;;;5052245;28;20051;-67
2023/07/16 01:11:50;;;;;;;50.75;34.92;;;;;;;;;;5044280;28;20048;-70
2023/07/16 01:14:18;;;;;;;52.92;34.55;;;;;;;;;;5031565;28;20052;-66
2023/07/16 01:16:45;;;;;;;53.67;33.50;;;;;;;;;;5049885;28;20068;-68
2023/07/16 01:19:13;;;;;;;54.15;34.70;;;;;;;;;;5037146;28;20758;-68
2023/07/16 01:21:59;;;;;;;52.05;33.72;;;;;;;;;;5048738;28;20041;-68
2023/07/16 01:24:26;;;;;;;50.33;33.75;;;;;;;;;;5043821;28;20044;-62
2023/07/16 01:27:11;;;;;;;50.22;34.00;;;;;;;;;;5025195;28;20032;-64
2023/07/16 01:29:42;;;;;;;54.47;33.15;;;;;;;;;;5038180;28;20097;-63
2023/07/16 01:32:11;;;;;;;52.72;35.38;;;;;;;;;;5043458;28;20045;-61
2023/07/16 01:34:39;;;;;;;51.75;34.03;;;;;;;;;;5043267;28;20979;-63
2023/07/16 01:37:06;;;;;;;51.60;34.13;;;;;;;;;;5046674;28;20068;-63
2023/07/16 01:39:33;;;;;;;54.40;33.53;;;;;;;;;;5042605;28;20072;-63
2023/07/16 01:42:00;;;;;;;53.05;34.70;;;;;;;;;;5048240;28;20856;-65
2023/07/16 01:44:26;;;;;;;54.90;33.97;;;;;;;;;;5052376;28;20416;-63
2023/07/16 01:47:13;;;;;;;55.10;34.70;;;;;;;;;;5047468;28;20087;-62
2023/07/16 01:49:43;;;;;;;53.88;34.58;;;;;;;;;;5045364;28;20055;-63
2023/07/16 01:52:10;;;;;;;54.40;34.35;;;;;;;;;;5048048;28;20075;-64
2023/07/16 01:54:37;;;;;;;56.90;35.50;;;;;;;;;;5047427;28;20133;-63
2023/07/16 01:57:04;;;;;;;52.78;34.10;;;;;;;;;;5045974;28;20075;-63
2023/07/16 01:59:31;;;;;;;50.22;33.55;;;;;;;;;;5043591;28;20865;-65
2023/07/16 02:01:58;;;;;;;54.25;32.95;;;;;;;;;;5031744;28;20057;-66
2023/07/16 02:04:24;;;;;;;54.92;34.70;;;;;;;;;;5046007;28;20040;-65
2023/07/16 02:06:51;;;;;;;51.40;33.35;;;;;;;;;;5047629;28;20036;-61
2023/07/16 02:09:17;;;;;;;55.28;33.75;;;;;;;;;;5046289;28;20037;-63
2023/07/16 02:11:44;;;;;;;58.80;32.97;;;;;;;;;;5046556;28;20847;-64
2023/07/16 02:14:11;;;;;;;50.95;34.08;;;;;;;;;;5029502;28;20033;-64
2023/07/16 02:16:37;;;;;;;53.10;33.38;;;;;;;;;;5045782;28;20040;-63
2023/07/16 02:19:04;;;;;;;56.70;34.55;;;;;;;;;;5045780;28;20041;-64
2023/07/16 02:21:31;;;;;;;56.28;35.92;;;;;;;;;;5046948;28;20075;-63
2023/07/16 02:23:57;;;;;;;54.30;34.80;;;;;;;;;;5049280;28;20056;-64
2023/07/16 02:26:24;;;;;;;54.47;35.08;;;;;;;;;;5047699;28;20401;-62
2023/07/16 02:28:51;;;;;;;56.25;35.75;;;;;;;;;;5048454;28;20066;-66
2023/07/16 02:31:17;;;;;;;58.40;36.58;;;;;;;;;;5048128;28;20856;-62
2023/07/16 02:33:44;;;;;;;60.20;36.83;;;;;;;;;;5046438;28;20044;-64
2023/07/16 02:36:11;;;;;;;56.88;35.13;;;;;;;;;;5047290;28;20045;-63
2023/07/16 02:38:37;;;;;;;62.35;37.55;;;;;;;;;;5047503;28;20949;-64
2023/07/16 02:41:04;;;;;;;59.03;36.90;;;;;;;;;;5045238;28;20531;-64
2023/07/16 02:43:30;;;;;;;57.53;38.20;;;;;;;;;;5046441;28;20032;-63
2023/07/16 02:45:57;;;;;;;60.33;38.47;;;;;;;;;;5050081;28;20673;-62
2023/07/16 02:48:24;;;;;;;59.53;37.88;;;;;;;;;;5047883;28;20548;-65
2023/07/16 02:50:50;;;;;;;64.90;39.25;;;;;;;;;;5046519;28;20053;-64
2023/07/16 02:53:17;;;;;;;68.85;42.97;;;;;;;;;;5048002;28;20927;-62
2023/07/16 02:55:46;;;;;;;66.13;42.30;;;;;;;;;;5047859;28;20135;-62
2023/07/16 02:58:13;;;;;;;68.10;42.63;;;;;;;;;;5048188;28;20045;-65
2023/07/16 03:00:40;;;;;;;69.63;43.97;;;;;;;;;;5026859;28;22471;-63
2023/07/16 03:03:07;;;;;;;68.13;41.72;;;;;;;;;;5047111;28;20036;-64
2023/07/16 03:05:33;;;;;;;68.18;41.45;;;;;;;;;;5046229;28;20400;-64
2023/07/16 03:08:00;;;;;;;73.15;44.05;;;;;;;;;;5044860;28;20040;-66
2023/07/16 03:10:26;;;;;;;68.40;43.65;;;;;;;;;;5025589;28;20068;-68
2023/07/16 03:12:53;;;;;;;73.35;45.10;;;;;;;;;;5048884;28;20059;-65
2023/07/16 03:15:20;;;;;;;77.55;44.40;;;;;;;;;;5025096;28;20488;-64
2023/07/16 03:17:46;;;;;;;68.63;43.72;;;;;;;;;;5043204;28;20048;-64
2023/07/16 03:20:13;;;;;;;76.60;46.13;;;;;;;;;;5044258;28;20037;-64
2023/07/16 03:22:40;;;;;;;76.18;46.13;;;;;;;;;;5042407;28;20625;-63
2023/07/16 03:25:07;;;;;;;82.85;46.42;;;;;;;;;;5044504;28;20067;-64
2023/07/16 03:27:33;;;;;;;80.07;49.40;;;;;;;;;;5043081;28;20925;-64
2023/07/16 03:30:00;;;;;;;87.13;50.30;;;;;;;;;;5043712;28;20162;-63
2023/07/16 03:32:27;;;;;;;85.60;51.65;;;;;;;;;;5044952;28;20048;-64
2023/07/16 03:34:53;;;;;;;81.28;49.25;;;;;;;;;;5025270;28;20054;-64
2023/07/16 03:37:20;;;;;;;80.18;48.03;;;;;;;;;;5032265;28;20032;-63
2023/07/16 03:39:47;;;;;;;83.40;50.00;;;;;;;;;;5046698;28;20037;-67
2023/07/16 03:42:13;;;;;;;79.22;47.80;;;;;;;;;;5045242;28;20063;-65
2023/07/16 03:44:40;;;;;;;83.80;49.83;;;;;;;;;;5043041;28;20397;-64
2023/07/16 03:47:07;;;;;;;80.78;48.33;;;;;;;;;;5028644;28;21683;-65
2023/07/16 03:49:33;;;;;;;82.28;48.15;;;;;;;;;;5023990;28;20617;-62
2023/07/16 03:52:00;;;;;;;82.50;49.10;;;;;;;;;;5044776;28;21496;-63
2023/07/16 03:54:26;;;;;;;77.20;46.92;;;;;;;;;;5042530;28;20207;-62
2023/07/16 03:56:53;;;;;;;79.85;46.13;;;;;;;;;;5025290;28;20036;-63
2023/07/16 03:59:22;;;;;;;83.60;48.20;;;;;;;;;;5021994;28;20122;-65
2023/07/16 04:01:48;;;;;;;78.80;46.78;;;;;;;;;;5041076;28;20105;-64
2023/07/16 04:04:15;;;;;;;79.40;47.47;;;;;;;;;;5042003;28;20060;-63
2023/07/16 04:06:42;;;;;;;78.65;46.08;;;;;;;;;;5041323;28;20163;-64
2023/07/16 04:09:08;;;;;;;77.63;47.33;;;;;;;;;;5038874;28;21027;-64
2023/07/16 04:11:35;;;;;;;72.82;44.00;;;;;;;;;;5039796;28;20242;-63
2023/07/16 04:14:01;;;;;;;70.15;41.53;;;;;;;;;;5043162;28;20037;-64
2023/07/16 04:16:28;;;;;;;68.22;39.95;;;;;;;;;;5040632;28;20714;-62
2023/07/16 04:18:55;;;;;;;72.55;41.15;;;;;;;;;;5040911;28;20040;-62
2023/07/16 04:21:21;;;;;;;71.30;41.38;;;;;;;;;;5021363;28;20659;-64
2023/07/16 04:23:48;;;;;;;69.28;42.17;;;;;;;;;;5041362;28;20037;-64
2023/07/16 04:26:14;;;;;;;71.78;41.42;;;;;;;;;;5043771;28;20044;-63
2023/07/16 04:28:41;;;;;;;66.70;39.65;;;;;;;;;;5030931;28;20133;-62
2023/07/16 04:31:08;;;;;;;64.35;40.13;;;;;;;;;;5039075;28;20064;-65
2023/07/16 04:33:37;;;;;;;70.05;41.55;;;;;;;;;;5039362;28;20048;-63
2023/07/16 04:36:04;;;;;;;70.85;41.67;;;;;;;;;;5044728;28;20040;-64
2023/07/16 04:38:31;;;;;;;67.78;39.95;;;;;;;;;;5039866;28;20381;-63
2023/07/16 04:40:57;;;;;;;69.82;41.47;;;;;;;;;;5041872;28;20051;-63
2023/07/16 04:43:24;;;;;;;68.93;40.72;;;;;;;;;;5022745;28;20041;-63
2023/07/16 04:45:51;;;;;;;70.25;41.05;;;;;;;;;;5042863;28;20084;-61
2023/07/16 04:48:17;;;;;;;71.68;42.00;;;;;;;;;;5041176;28;20062;-61
2023/07/16 04:50:44;;;;;;;63.33;38.22;;;;;;;;;;5041043;28;20413;-62
2023/07/16 04:53:13;;;;;;;62.15;36.58;;;;;;;;;;5027466;28;20056;-62
2023/07/16 04:55:40;;;;;;;59.58;35.67;;;;;;;;;;5031704;28;20036;-61
2023/07/16 04:58:06;;;;;;;58.33;34.38;;;;;;;;;;5027783;28;20064;-63
2023/07/16 05:00:34;;;;;;;53.80;33.38;;;;;;;;;;5023830;28;20110;-63
2023/07/16 05:03:00;;;;;;;56.08;34.60;;;;;;;;;;5042681;28;20067;-60
2023/07/16 05:05:27;;;;;;;56.63;33.08;;;;;;;;;;5042924;28;20048;-61
2023/07/16 05:07:54;;;;;;;52.60;30.33;;;;;;;;;;5040640;28;20044;-61
2023/07/16 05:10:22;;;;;;;48.40;29.58;;;;;;;;;;5043118;28;20029;-61
2023/07/16 05:12:48;;;;;;;49.25;28.77;;;;;;;;;;5043285;28;20135;-60
2023/07/16 05:15:15;;;;;;;47.00;27.42;;;;;;;;;;5023633;28;20036;-61
2023/07/16 05:17:42;;;;;;;47.13;29.65;;;;;;;;;;5046640;28;20048;-62
2023/07/16 05:20:09;;;;;;;47.20;27.75;;;;;;;;;;5027397;28;20051;-61
2023/07/16 05:22:36;;;;;;;48.60;27.77;;;;;;;;;;5030749;28;20041;-62
2023/07/16 05:25:03;;;;;;;45.53;28.13;;;;;;;;;;5019548;28;20122;-64
2023/07/16 05:27:30;;;;;;;52.22;29.02;;;;;;;;;;5043364;28;20040;-62
2023/07/16 05:29:56;;;;;;;45.45;27.17;;;;;;;;;;5044399;28;20044;-62
2023/07/16 05:32:23;;;;;;;48.28;29.10;;;;;;;;;;5043410;28;20056;-63
2023/07/16 05:34:50;;;;;;;46.25;28.38;;;;;;;;;;5044954;28;20377;-66
2023/07/16 05:37:16;;;;;;;49.88;28.60;;;;;;;;;;5032494;28;20033;-63
2023/07/16 05:39:43;;;;;;;46.17;28.67;;;;;;;;;;5022570;28;20093;-64
2023/07/16 05:42:10;;;;;;;48.63;26.85;;;;;;;;;;5026459;28;20044;-61
2023/07/16 05:44:37;;;;;;;46.17;27.45;;;;;;;;;;5033006;28;20126;-60
2023/07/16 05:47:03;;;;;;;46.67;28.30;;;;;;;;;;5028144;28;20056;-61
2023/07/16 05:49:31;;;;;;;46.08;27.83;;;;;;;;;;5045532;28;20029;-62
2023/07/16 05:51:58;;;;;;;46.72;26.60;;;;;;;;;;5048806;28;20049;-61
2023/07/16 05:54:24;;;;;;;44.17;26.58;;;;;;;;;;5029729;28;20041;-63
2023/07/16 05:57:11;;;;;;;47.88;28.33;;;;;;;;;;5028728;28;20057;-63
2023/07/16 05:59:38;;;;;;;46.72;26.80;;;;;;;;;;5027085;28;20517;-61
2023/07/16 06:02:05;;;;;;;46.67;25.77;;;;;;;;;;5027872;28;22662;-63
2023/07/16 06:04:31;;;;;;;43.97;25.77;;;;;;;;;;5028983;28;20043;-61
2023/07/16 06:06:58;;;;;;;46.40;27.35;;;;;;;;;;5028319;28;20203;-61
2023/07/16 06:09:25;;;;;;;43.38;26.00;;;;;;;;;;5026312;28;20040;-62
2023/07/16 06:11:51;;;;;;;44.30;24.77;;;;;;;;;;5013687;28;20171;-61
2023/07/16 06:14:18;;;;;;;39.53;22.95;;;;;;;;;;5029340;28;20033;-61
2023/07/16 06:16:45;;;;;;;43.03;25.60;;;;;;;;;;5028747;28;20047;-63
2023/07/16 06:19:11;;;;;;;40.53;24.17;;;;;;;;;;5028022;28;20182;-62
2023/07/16 06:21:38;;;;;;;41.20;24.45;;;;;;;;;;5028382;28;20041;-62
2023/07/16 06:24:05;;;;;;;44.70;23.90;;;;;;;;;;5015087;28;20977;-62
2023/07/16 06:26:31;;;;;;;37.58;22.63;;;;;;;;;;5011745;28;20067;-61
2023/07/16 06:28:58;;;;;;;37.25;22.48;;;;;;;;;;5026897;28;20593;-63
2023/07/16 06:31:25;;;;;;;36.45;21.92;;;;;;;;;;5026498;28;20099;-61
2023/07/16 06:33:51;;;;;;;38.47;22.92;;;;;;;;;;5014367;28;20610;-61
2023/07/16 06:36:19;;;;;;;39.45;22.25;;;;;;;;;;5048569;28;20064;-61
2023/07/16 06:38:46;;;;;;;38.00;22.27;;;;;;;;;;5046445;28;20119;-61
2023/07/16 06:41:13;;;;;;;38.53;22.15;;;;;;;;;;5045510;28;20527;-63
2023/07/16 06:43:39;;;;;;;37.50;23.23;;;;;;;;;;5049433;28;20078;-62
2023/07/16 06:46:06;;;;;;;39.65;23.05;;;;;;;;;;5028571;28;20033;-60
2023/07/16 06:48:34;;;;;;;39.05;23.48;;;;;;;;;;5045311;28;20051;-62
2023/07/16 06:51:00;;;;;;;39.80;22.98;;;;;;;;;;5046781;28;20097;-61
2023/07/16 06:53:27;;;;;;;42.42;25.35;;;;;;;;;;5046177;28;20065;-62
2023/07/16 06:55:54;;;;;;;41.75;23.92;;;;;;;;;;5025484;28;20048;-61
2023/07/16 06:58:21;;;;;;;39.83;23.85;;;;;;;;;;5043087;28;20931;-65
2023/07/16 07:00:47;;;;;;;41.30;23.20;;;;;;;;;;5043529;28;20051;-62
2023/07/16 07:03:15;;;;;;;42.65;25.25;;;;;;;;;;5031619;28;20045;-63
2023/07/16 07:05:42;;;;;;;44.03;24.50;;;;;;;;;;5043933;28;20201;-62
2023/07/16 07:08:09;;;;;;;44.25;25.60;;;;;;;;;;5043306;28;21255;-59
2023/07/16 07:10:37;;;;;;;43.85;25.65;;;;;;;;;;5047127;28;20937;-60
2023/07/16 07:13:04;;;;;;;43.25;25.40;;;;;;;;;;5035722;28;20040;-63
2023/07/16 07:15:31;;;;;;;40.08;23.58;;;;;;;;;;5060445;28;20036;-63
2023/07/16 07:17:58;;;;;;;43.97;26.33;;;;;;;;;;5061369;28;20036;-63
2023/07/16 07:20:24;;;;;;;43.33;25.13;;;;;;;;;;5034533;28;20071;-61
2023/07/16 07:22:51;;;;;;;46.40;26.88;;;;;;;;;;5060444;28;20044;-63
2023/07/16 07:25:18;;;;;;;45.25;26.60;;;;;;;;;;5045396;28;20116;-63
2023/07/16 07:27:45;;;;;;;42.53;26.23;;;;;;;;;;5039109;28;20044;-62
2023/07/16 07:30:11;;;;;;;43.72;26.70;;;;;;;;;;5062745;28;20176;-63
2023/07/16 07:32:38;;;;;;;45.67;27.10;;;;;;;;;;5060686;28;20044;-62
2023/07/16 07:35:06;;;;;;;49.28;27.80;;;;;;;;;;5042269;28;20029;-63
2023/07/16 07:37:32;;;;;;;44.70;25.38;;;;;;;;;;5055221;28;20123;-63
2023/07/16 07:39:59;;;;;;;41.30;24.45;;;;;;;;;;5034237;28;20111;-62
2023/07/16 07:42:27;;;;;;;39.53;23.83;;;;;;;;;;5058462;28;20040;-64
2023/07/16 07:44:54;;;;;;;43.88;25.13;;;;;;;;;;5060252;28;20063;-62
2023/07/16 07:47:22;;;;;;;43.67;24.88;;;;;;;;;;5061784;28;20468;-62
2023/07/16 07:49:49;;;;;;;42.90;25.15;;;;;;;;;;5060945;28;20040;-61
2023/07/16 07:52:15;;;;;;;40.97;24.60;;;;;;;;;;5059715;28;20041;-64
2023/07/16 07:54:42;;;;;;;40.80;23.75;;;;;;;;;;5061689;28;20595;-62
2023/07/16 07:57:09;;;;;;;41.05;24.48;;;;;;;;;;5062596;28;20044;-63
2023/07/16 07:59:35;;;;;;;40.13;23.85;;;;;;;;;;5061577;28;20550;-63
2023/07/16 08:02:02;;;;;;;41.55;24.42;;;;;;;;;;5063379;28;20052;-63
2023/07/16 08:04:31;;;;;;;43.33;23.50;;;;;;;;;;5062449;28;20149;-65
2023/07/16 08:06:58;;;;;;;42.75;24.65;;;;;;;;;;5063103;28;20041;-62
2023/07/16 08:09:24;;;;;;;43.25;25.05;;;;;;;;;;5054439;28;20094;-63
2023/07/16 08:11:51;;;;;;;42.97;24.30;;;;;;;;;;5060799;28;20722;-62
2023/07/16 08:14:18;;;;;;;40.47;23.50;;;;;;;;;;5062992;28;20032;-62
2023/07/16 08:16:44;;;;;;;45.88;25.63;;;;;;;;;;5057734;28;20138;-64
2023/07/16 08:19:11;;;;;;;41.65;24.80;;;;;;;;;;5058291;28;20133;-62
2023/07/16 08:21:37;;;;;;;42.85;24.23;;;;;;;;;;5040332;28;20564;-62
2023/07/16 08:24:06;;;;;;;41.88;23.45;;;;;;;;;;5056448;28;20061;-60
2023/07/16 08:26:33;;;;;;;39.88;24.20;;;;;;;;;;5061114;28;20115;-61
2023/07/16 08:29:01;;;;;;;37.85;22.98;;;;;;;;;;5060306;28;20185;-61
2023/07/16 08:31:28;;;;;;;43.42;24.55;;;;;;;;;;5045610;28;20054;-62
2023/07/16 08:33:54;;;;;;;40.72;23.92;;;;;;;;;;5063044;28;21123;-61
2023/07/16 08:36:22;;;;;;;38.92;23.35;;;;;;;;;;5060253;28;20055;-62
2023/07/16 08:38:49;;;;;;;46.40;25.10;;;;;;;;;;5059167;28;20122;-61
2023/07/16 08:41:15;;;;;;;39.50;22.65;;;;;;;;;;5062233;28;20039;-63
2023/07/16 08:43:42;;;;;;;41.42;24.98;;;;;;;;;;5057918;28;20048;-63
2023/07/16 08:46:09;;;;;;;43.80;24.55;;;;;;;;;;5040994;28;20507;-63
2023/07/16 08:48:36;;;;;;;38.45;22.13;;;;;;;;;;5031176;28;20050;-62
2023/07/16 08:51:03;;;;;;;41.55;24.75;;;;;;;;;;5058416;28;20040;-64
2023/07/16 08:53:30;;;;;;;41.55;24.30;;;;;;;;;;5058787;28;20619;-65
2023/07/16 08:55:57;;;;;;;44.13;25.33;;;;;;;;;;5059146;28;20064;-63
2023/07/16 08:58:25;;;;;;;43.30;25.50;;;;;;;;;;5032836;28;20037;-63
2023/07/16 09:00:52;;;;;;;41.90;25.17;;;;;;;;;;5053310;28;20048;-63
2023/07/16 09:03:19;;;;;;;44.63;25.40;;;;;;;;;;5032721;28;20102;-64
2023/07/16 09:05:46;;;;;;;42.90;24.67;;;;;;;;;;5057545;28;20040;-62
2023/07/16 09:08:13;;;;;;;44.53;25.42;;;;;;;;;;5040319;28;20040;-62
2023/07/16 09:10:42;;;;;;;42.40;24.60;;;;;;;;;;5047497;28;20111;-61
2023/07/16 09:13:09;;;;;;;42.25;24.23;;;;;;;;;;5059935;28;20087;-62
2023/07/16 09:15:37;;;;;;;44.72;25.33;;;;;;;;;;5059353;28;20050;-63
2023/07/16 09:18:04;;;;;;;42.80;24.58;;;;;;;;;;5060526;28;20804;-63
2023/07/16 09:20:30;;;;;;;46.42;25.33;;;;;;;;;;5034061;28;20485;-60
2023/07/16 09:22:58;;;;;;;45.03;24.52;;;;;;;;;;5045329;28;20041;-62
2023/07/16 09:25:31;;;;;;;44.83;24.83;;;;;;;;;;5060335;28;20056;-64
2023/07/16 09:28:03;;;;;;;44.15;24.17;;;;;;;;;;5058090;28;20045;-62
2023/07/16 09:30:36;;;;;;;45.88;25.05;;;;;;;;;;5057935;28;20436;-62
2023/07/16 09:33:02;;;;;;;;;;;;;;;;;;5059488;28;20048;-63
2023/07/16 09:35:28;;;;;;;37.75;22.77;;;;;;;;;;5049672;28;19923;-62
2023/07/16 09:37:55;;;;;;;45.58;26.25;;;;;;;;;;5053500;28;20029;-62
2023/07/16 09:40:22;;;;;;;42.03;24.73;;;;;;;;;;5062047;28;20112;-62
2023/07/16 09:42:49;;;;;;;43.13;24.48;;;;;;;;;;5059719;28;20411;-60
2023/07/16 09:45:20;;;;;;;41.58;25.30;;;;;;;;;;5051631;28;20060;-60
2023/07/16 09:47:46;;;;;;;40.20;24.20;;;;;;;;;;5059421;28;20178;-62
2023/07/16 09:50:13;;;;;;;43.70;25.33;;;;;;;;;;5058850;28;20052;-61
2023/07/16 09:52:42;;;;;;;47.40;27.02;;;;;;;;;;5059311;28;20835;-63
2023/07/16 09:55:09;;;;;;;46.00;25.85;;;;;;;;;;5058918;28;20036;-63
2023/07/16 09:57:40;;;;;;;46.28;25.02;;;;;;;;;;5057225;28;20041;-62
2023/07/16 10:00:10;;;;;;;48.67;26.90;;;;;;;;;;5057899;28;20044;-61
2023/07/16 10:02:37;;;;;;;48.33;26.77;;;;;;;;;;5040067;28;20064;-62
2023/07/16 10:05:19;;;;;;;43.30;26.05;;;;;;;;;;5063928;28;20808;-61
2023/07/16 10:08:06;;;;;;;46.22;25.27;;;;;;;;;;5063511;28;20040;-60
2023/07/16 10:10:42;;;;;;;47.38;27.27;;;;;;;;;;5044881;28;20488;-61
2023/07/16 10:13:09;;;;;;;48.55;25.73;;;;;;;;;;5064599;28;20090;-62
2023/07/16 10:15:36;;;;;;;44.28;25.73;;;;;;;;;;5062884;28;20476;-63
2023/07/16 10:18:02;;;;;;;46.17;25.38;;;;;;;;;;5038054;28;20837;-63
2023/07/16 10:20:43;;;;;;;48.30;25.90;;;;;;;;;;5043306;28;21380;-62
2023/07/16 10:23:14;;;;;;;47.85;25.92;;;;;;;;;;5044961;28;20087;-63
2023/07/16 10:25:41;;;;;;;50.03;27.70;;;;;;;;;;5034662;28;20115;-62
2023/07/16 10:28:07;;;;;;;46.85;26.63;;;;;;;;;;5062662;28;20048;-63
2023/07/16 10:30:35;;;;;;;50.70;27.42;;;;;;;;;;5061001;28;20936;-61
2023/07/16 10:33:12;;;;;;;48.22;26.67;;;;;;;;;;5062731;28;20044;-63
2023/07/16 10:35:41;;;;;;;48.20;26.83;;;;;;;;;;5048640;28;20043;-62
2023/07/16 10:38:08;;;;;;;51.13;26.73;;;;;;;;;;5041245;28;20036;-63
2023/07/16 10:40:40;;;;;;;48.92;27.92;;;;;;;;;;5062262;28;20036;-60
2023/07/16 10:43:07;;;;;;;55.58;28.98;;;;;;;;;;5062100;28;22013;-62
2023/07/16 10:45:34;;;;;;;50.47;28.27;;;;;;;;;;5061311;28;20093;-62
2023/07/16 10:48:00;;;;;;;47.08;26.70;;;;;;;;;;5060747;28;20044;-64
2023/07/16 10:50:27;;;;;;;49.28;27.63;;;;;;;;;;5062396;28;20048;-63
2023/07/16 10:52:54;;;;;;;48.35;28.00;;;;;;;;;;5045600;28;20527;-60
2023/07/16 10:55:21;;;;;;;50.20;28.83;;;;;;;;;;5060476;28;20033;-62
2023/07/16 10:57:49;;;;;;;48.63;28.27;;;;;;;;;;5058813;28;20112;-63
2023/07/16 11:00:16;;;;;;;49.72;27.88;;;;;;;;;;5044149;28;20064;-62
2023/07/16 11:02:43;;;;;;;51.45;29.00;;;;;;;;;;5059018;28;20170;-62
2023/07/16 11:05:14;;;;;;;56.33;28.92;;;;;;;;;;5063332;28;20123;-64
2023/07/16 11:07:44;;;;;;;52.63;28.60;;;;;;;;;;5062647;28;20071;-68
2023/07/16 11:10:11;;;;;;;53.80;28.10;;;;;;;;;;5059984;28;20232;-61
2023/07/16 11:12:37;;;;;;;51.05;28.13;;;;;;;;;;5060356;28;21793;-61
2023/07/16 11:15:04;;;;;;;53.25;28.88;;;;;;;;;;5062152;28;20152;-64
2023/07/16 11:17:51;;;;;;;51.60;29.17;;;;;;;;;;5009291;28;20049;-62
2023/07/16 11:20:20;;;;;;;49.47;27.67;;;;;;;;;;5010428;28;20137;-63
2023/07/16 11:22:47;;;;;;;50.55;29.05;;;;;;;;;;5013252;28;20037;-60
2023/07/16 11:25:14;;;;;;;51.03;29.33;;;;;;;;;;5010201;28;20966;-60
2023/07/16 11:27:42;;;;;;;50.65;28.83;;;;;;;;;;5005893;28;20049;-60
2023/07/16 11:30:09;;;;;;;54.13;29.33;;;;;;;;;;4992988;28;20037;-60
2023/07/16 11:32:48;;;;;;;52.25;29.67;;;;;;;;;;5008591;28;20054;-62
2023/07/16 11:35:19;;;;;;;55.50;30.60;;;;;;;;;;5003151;28;22477;-61
2023/07/16 11:37:46;;;;;;;55.05;30.33;;;;;;;;;;5011897;28;20038;-62
2023/07/16 11:40:17;;;;;;;57.03;30.85;;;;;;;;;;5006774;28;20049;-61
2023/07/16 11:42:44;;;;;;;59.15;32.22;;;;;;;;;;5006903;28;20034;-61
2023/07/16 11:45:17;;;;;;;59.83;32.47;;;;;;;;;;5012596;28;20045;-65
2023/07/16 11:47:44;;;;;;;58.97;32.30;;;;;;;;;;5009500;28;20042;-61
2023/07/16 11:50:10;;;;;;;58.50;33.33;;;;;;;;;;5008349;28;20038;-61
2023/07/16 11:52:37;;;;;;;56.22;31.88;;;;;;;;;;5007657;28;20041;-61
2023/07/16 11:55:04;;;;;;;57.30;32.53;;;;;;;;;;5029603;28;20037;-63
2023/07/16 11:57:30;;;;;;;54.72;32.65;;;;;;;;;;5058951;28;20148;-61
2023/07/16 11:59:57;;;;;;;54.53;31.02;;;;;;;;;;5058515;28;20090;-62
2023/07/16 12:02:25;;;;;;;55.55;31.58;;;;;;;;;;5058049;28;20047;-63
2023/07/16 12:04:51;;;;;;;56.92;31.80;;;;;;;;;;5059952;28;20032;-61
2023/07/16 12:07:34;;;;;;;56.88;31.58;;;;;;;;;;5037680;28;20037;-62
2023/07/16 12:10:01;;;;;;;56.35;31.20;;;;;;;;;;5059287;28;20099;-62
2023/07/16 12:12:28;;;;;;;55.15;31.50;;;;;;;;;;5063469;28;20507;-63
2023/07/16 12:14:54;;;;;;;55.28;32.53;;;;;;;;;;5056892;28;20070;-62
2023/07/16 12:17:21;;;;;;;58.13;33.92;;;;;;;;;;5062008;28;20041;-63
2023/07/16 12:19:48;;;;;;;66.22;36.00;;;;;;;;;;5060983;28;20051;-63
2023/07/16 12:22:17;;;;;;;67.22;35.35;;;;;;;;;;5062137;28;20438;-61
2023/07/16 12:24:43;;;;;;;64.10;36.00;;;;;;;;;;5058815;28;20064;-63
2023/07/16 12:27:10;;;;;;;59.90;33.70;;;;;;;;;;5061145;28;20036;-62
2023/07/16 12:29:36;;;;;;;59.15;32.97;;;;;;;;;;5061085;28;20051;-62
2023/07/16 12:32:03;;;;;;;62.40;35.88;;;;;;;;;;5059014;28;20045;-62
2023/07/16 12:34:30;;;;;;;59.67;33.75;;;;;;;;;;5062019;28;20039;-60
2023/07/16 12:36:56;;;;;;;60.90;34.78;;;;;;;;;;5061960;28;20487;-61
2023/07/16 12:39:26;;;;;;;63.45;35.50;;;;;;;;;;5032784;28;20036;-63
2023/07/16 12:41:53;;;;;;;60.65;34.75;;;;;;;;;;5061157;28;20049;-63
2023/07/16 12:44:19;;;;;;;62.35;35.05;;;;;;;;;;5044051;28;20079;-62
2023/07/16 12:46:46;;;;;;;58.53;34.08;;;;;;;;;;5057735;28;20464;-62
2023/07/16 12:49:13;;;;;;;63.55;35.10;;;;;;;;;;5058744;28;21406;-61
2023/07/16 12:51:40;;;;;;;64.63;34.90;;;;;;;;;;5034543;28;20127;-62
2023/07/16 12:54:07;;;;;;;59.75;35.38;;;;;;;;;;5060390;28;20036;-65
2023/07/16 12:56:33;;;;;;;63.42;35.67;;;;;;;;;;5061895;28;20094;-64
2023/07/16 12:59:00;;;;;;;68.50;36.72;;;;;;;;;;5060132;28;20144;-60
2023/07/16 13:01:26;;;;;;;65.43;36.92;;;;;;;;;;5060317;28;20049;-63
2023/07/16 13:03:53;;;;;;;60.60;36.72;;;;;;;;;;5063155;28;20500;-61
2023/07/16 13:06:19;;;;;;;69.05;38.92;;;;;;;;;;5063467;28;20575;-60
2023/07/16 13:08:46;;;;;;;61.25;36.50;;;;;;;;;;5059029;28;20040;-63
2023/07/16 13:11:13;;;;;;;65.10;36.80;;;;;;;;;;5062292;28;20056;-62
2023/07/16 13:13:41;;;;;;;67.45;39.17;;;;;;;;;;5033967;28;20044;-62
2023/07/16 13:16:09;;;;;;;68.28;37.45;;;;;;;;;;5043393;28;20513;-64
2023/07/16 13:18:36;;;;;;;65.60;37.63;;;;;;;;;;5056787;28;20120;-64
2023/07/16 13:21:03;;;;;;;66.00;37.08;;;;;;;;;;5050126;28;20102;-62
2023/07/16 13:23:29;;;;;;;64.28;37.05;;;;;;;;;;5044097;28;20044;-63
2023/07/16 13:25:56;;;;;;;64.38;38.08;;;;;;;;;;5061709;28;20045;-67
2023/07/16 13:28:24;;;;;;;71.95;39.30;;;;;;;;;;5060265;28;20045;-69
2023/07/16 13:30:50;;;;;;;65.03;38.25;;;;;;;;;;5010720;28;20042;-61
2023/07/16 13:33:18;;;;;;;62.40;37.72;;;;;;;;;;5010576;28;20152;-63
2023/07/16 13:35:45;;;;;;;68.53;38.50;;;;;;;;;;5009632;28;20715;-63
2023/07/16 13:38:12;;;;;;;65.35;39.25;;;;;;;;;;5012969;28;20609;-61
2023/07/16 13:40:38;;;;;;;62.33;36.80;;;;;;;;;;5011703;28;20197;-62
2023/07/16 13:43:05;;;;;;;61.80;37.40;;;;;;;;;;5014849;28;20113;-63
2023/07/16 13:45:33;;;;;;;64.90;37.22;;;;;;;;;;5014775;28;20040;-62
2023/07/16 13:47:59;;;;;;;64.25;38.35;;;;;;;;;;5013851;28;20143;-62
2023/07/16 13:50:26;;;;;;;59.55;35.72;;;;;;;;;;5012521;28;20048;-63
2023/07/16 13:52:53;;;;;;;62.72;37.65;;;;;;;;;;5014556;28;20072;-63
2023/07/16 13:55:19;;;;;;;65.95;38.40;;;;;;;;;;5012294;28;20549;-64
2023/07/16 13:57:46;;;;;;;66.10;38.22;;;;;;;;;;5011855;28;20071;-63
2023/07/16 14:00:15;;;;;;;71.63;40.13;;;;;;;;;;5012044;28;20041;-63
2023/07/16 14:02:43;;;;;;;64.07;37.95;;;;;;;;;;5054800;28;20056;-62
2023/07/16 14:05:10;;;;;;;63.15;38.50;;;;;;;;;;5061360;28;20087;-62
2023/07/16 14:07:36;;;;;;;63.65;38.65;;;;;;;;;;5062599;28;20044;-63
2023/07/16 14:10:04;;;;;;;70.03;39.08;;;;;;;;;;5042623;28;20039;-62
2023/07/16 14:12:31;;;;;;;63.75;38.00;;;;;;;;;;5062779;28;20036;-63
2023/07/16 14:14:57;;;;;;;64.78;38.83;;;;;;;;;;5066710;28;20047;-61
2023/07/16 14:17:24;;;;;;;63.95;38.55;;;;;;;;;;5043828;28;20830;-64
2023/07/16 14:19:51;;;;;;;70.18;40.08;;;;;;;;;;5063839;28;20047;-61